Perdix, Pennsylvania
Current Conditions -  °F | °C
As of 3:56 PM on Tuesday 21 Oct 2014 (Local Time) from KCXY Reporting Station
Overcast Overcast  
Wind Chill: 62°   Ceiling: 8500
Heat Index: 62°   Visibility: 10mi
Dew Point: 48°   Wind: 0mph
Humidity: 60%   Direction: NA
Pressure: 29.82"   Gusts: NA
Location:  40.4048°N, 77.0696°W
Report Text: KCXY 211956Z 00000KT 10SM FEW060 OVC085 17/09 A2982 RMK AO2 SLP099 T01670089
Loading
Personal Weather Stations






























Interactive Weather Map
Tropical Storm Tracking
New forecast layout! Learn more

10-Day Weather Forecast

Advertisements
Track Severe Weather on mobile